Time;durP1;ratioP1;P1;durP2;ratioP2;P2;SDS_P1;SDS_P2;PMS_P1;PMS_P2;Temp;Humidity;BMP_temperature;BMP_pressure;BME280_temperature;BME280_humidity;BME280_pressure;Samples;Min_cycle;Max_cycle;Signal;HPM_P1;HPM_P2
2021/08/07 00:01:55;;;;;;;6.53;6.22;;;;;;;16.38;77.57;100078.88;4432793;31;20573;-66
2021/08/07 00:04:21;;;;;;;5.10;4.90;;;;;;;16.38;77.55;100081.53;4438253;31;20086;-66
2021/08/07 00:06:46;;;;;;;5.18;4.97;;;;;;;16.42;78.08;100085.63;4438907;31;20098;-68
2021/08/07 00:09:12;;;;;;;5.10;4.90;;;;;;;16.42;77.94;100080.31;4436880;31;20581;-66
2021/08/07 00:11:37;;;;;;;5.20;5.00;;;;;;;16.38;78.53;100097.41;4435325;31;20068;-66
2021/08/07 00:14:02;;;;;;;6.62;6.32;;;;;;;16.18;78.03;100043.53;4435095;32;20378;-64
2021/08/07 00:16:28;;;;;;;4.70;4.50;;;;;;;16.33;78.24;100080.13;4432725;31;20318;-66
2021/08/07 00:18:53;;;;;;;6.05;5.75;;;;;;;16.35;77.63;100082.66;4428815;32;20068;-66
2021/08/07 00:21:18;;;;;;;4.75;4.55;;;;;;;16.34;77.68;100073.88;4433878;31;20622;-65
2021/08/07 00:23:44;;;;;;;4.70;4.50;;;;;;;16.36;78.97;100068.44;4430449;31;20072;-66
2021/08/07 00:26:09;;;;;;;5.00;4.80;;;;;;;16.06;77.99;100024.28;4434103;31;20063;-67
2021/08/07 00:28:34;;;;;;;4.85;4.65;;;;;;;16.38;78.96;100078.88;4434752;31;20889;-65
2021/08/07 00:31:00;;;;;;;4.80;4.60;;;;;;;16.38;78.03;100065.66;4433357;32;20581;-65
2021/08/07 00:33:25;;;;;;;4.80;4.60;;;;;;;16.36;78.35;100068.44;4433309;32;20148;-66
2021/08/07 00:35:50;;;;;;;4.90;4.70;;;;;;;16.38;77.71;100063.00;4437014;32;20080;-66
2021/08/07 00:38:16;;;;;;;4.62;4.43;;;;;;;16.37;78.05;100069.28;4438128;31;20980;-65
2021/08/07 00:40:41;;;;;;;5.10;4.90;;;;;;;16.34;78.50;100065.09;4440936;31;20168;-66
2021/08/07 00:43:09;;;;;;;5.43;5.22;;;;;;;16.31;78.92;100068.81;4432515;31;20086;-66
2021/08/07 00:45:34;;;;;;;4.70;4.50;;;;;;;16.29;78.84;100062.00;4438608;31;20067;-65
2021/08/07 00:48:00;;;;;;;6.65;6.35;;;;;;;16.27;78.66;100062.12;4423717;32;20609;-66
2021/08/07 00:50:25;;;;;;;5.03;4.72;;;;;;;16.26;79.05;100064.91;4431584;32;20083;-65
2021/08/07 00:52:50;;;;;;;5.40;5.18;;;;;;;16.23;78.75;100067.81;4433967;32;20679;-66
2021/08/07 00:55:16;;;;;;;4.80;4.60;;;;;;;16.17;79.15;100061.25;4429762;32;20060;-66
2021/08/07 00:57:41;;;;;;;4.80;4.60;;;;;;;16.14;79.54;100061.50;4429282;31;20573;-65
2021/08/07 01:00:06;;;;;;;5.10;4.90;;;;;;;16.09;79.67;100061.06;4430485;31;20623;-65
2021/08/07 01:02:32;;;;;;;4.80;4.60;;;;;;;16.03;79.35;100062.41;4431110;31;20489;-66
2021/08/07 01:05:03;;;;;;;6.15;5.85;;;;;;;15.99;79.88;100062.81;4427866;32;20620;-66
2021/08/07 01:07:58;;;;;;;5.90;5.60;;;;;;;15.99;79.76;100063.66;4448431;32;20894;-66
2021/08/07 01:10:29;;;;;;;4.65;4.45;;;;;;;15.85;80.20;100056.88;4428134;31;20696;-66
2021/08/07 01:13:04;;;;;;;4.70;4.50;;;;;;;15.77;81.02;100051.41;4454985;31;20059;-66
2021/08/07 01:15:30;;;;;;;4.70;4.50;;;;;;;15.63;82.10;100043.75;4428739;31;20083;-67
2021/08/07 01:17:56;;;;;;;6.18;5.87;;;;;;;15.59;81.53;100052.91;4436320;31;20117;-64
2021/08/07 01:20:31;;;;;;;4.95;4.75;;;;;;;15.47;82.41;100050.31;4433435;32;20078;-66
2021/08/07 01:23:16;;;;;;;6.45;6.15;;;;;;;15.37;82.42;100049.41;4429536;32;20573;-66
2021/08/07 01:26:11;;;;;;;4.60;4.40;;;;;;;15.11;83.00;100047.13;4451401;31;20547;-66
2021/08/07 01:28:38;;;;;;;4.60;4.40;;;;;;;15.18;83.41;100060.66;4430868;32;20090;-66
2021/08/07 01:31:04;;;;;;;6.35;6.05;;;;;;;15.12;83.41;100062.00;4426090;32;20163;-66
2021/08/07 01:33:29;;;;;;;5.00;4.80;;;;;;;15.15;83.96;100060.91;4432577;32;20859;-66
2021/08/07 01:35:55;;;;;;;6.45;6.15;;;;;;;15.12;84.29;100062.00;4435344;32;20224;-66
2021/08/07 01:38:20;;;;;;;4.75;4.55;;;;;;;15.13;84.36;100057.53;4424625;31;20086;-66
2021/08/07 01:40:45;;;;;;;4.90;4.70;;;;;;;15.14;83.21;100065.34;4437078;32;20145;-66
2021/08/07 01:43:11;;;;;;;5.20;5.00;;;;;;;14.74;82.95;99991.97;4436056;31;20063;-63
2021/08/07 01:45:37;;;;;;;4.53;4.32;;;;;;;15.23;83.61;100063.75;4445534;31;20095;-66
2021/08/07 01:48:04;;;;;;;6.65;6.35;;;;;;;15.27;83.26;100053.78;4436492;31;20067;-66
2021/08/07 01:50:47;;;;;;;4.72;4.53;;;;;;;15.29;82.88;100055.31;4438040;32;20072;-66
2021/08/07 01:53:14;;;;;;;4.75;4.55;;;;;;;15.30;82.43;100058.81;4433437;31;20082;-66
2021/08/07 01:56:03;;;;;;;4.68;4.47;;;;;;;15.28;82.52;100061.59;4437856;32;20565;-66
2021/08/07 01:58:29;;;;;;;4.60;4.40;;;;;;;15.18;82.56;100046.63;4447176;31;20059;-66
2021/08/07 02:00:55;;;;;;;4.60;4.40;;;;;;;15.05;82.13;100028.25;4436510;32;20652;-66
2021/08/07 02:03:20;;;;;;;4.70;4.50;;;;;;;15.28;81.88;100048.38;4439587;32;20081;-65
2021/08/07 02:05:47;;;;;;;4.87;4.68;;;;;;;15.26;82.47;100047.66;4431640;31;20063;-66
2021/08/07 02:08:12;;;;;;;4.90;4.70;;;;;;;15.26;81.94;100050.31;4435213;32;20838;-66
2021/08/07 02:10:41;;;;;;;4.80;4.60;;;;;;;14.29;81.86;99894.37;4433187;31;20064;-65
2021/08/07 02:13:06;;;;;;;6.62;6.32;;;;;;;14.99;82.44;100013.75;4434489;31;20090;-66
2021/08/07 02:15:32;;;;;;;4.90;4.70;;;;;;;15.13;82.61;100052.25;4439811;32;20076;-66
2021/08/07 02:17:58;;;;;;;6.25;5.95;;;;;;;15.11;82.96;100048.91;4432726;31;20082;-66
2021/08/07 02:20:23;;;;;;;4.62;4.43;;;;;;;15.12;82.47;100051.44;4439400;31;20593;-65
2021/08/07 02:22:49;;;;;;;4.80;4.60;;;;;;;15.19;82.70;100046.47;4436791;31;20083;-67
2021/08/07 02:25:15;;;;;;;4.60;4.40;;;;;;;15.24;82.89;100041.66;4435182;32;20091;-66
2021/08/07 02:27:40;;;;;;;4.70;4.50;;;;;;;15.32;82.81;100041.03;4436672;31;20078;-66
2021/08/07 02:30:06;;;;;;;6.35;6.05;;;;;;;13.99;82.06;99812.41;4432774;32;20149;-66
2021/08/07 02:32:32;;;;;;;4.60;4.40;;;;;;;15.40;81.97;100038.59;4435502;31;20493;-66
2021/08/07 02:34:57;;;;;;;6.68;6.37;;;;;;;15.41;81.63;100039.41;4432040;32;20085;-66
2021/08/07 02:37:22;;;;;;;4.90;4.70;;;;;;;15.39;82.25;100028.13;4439504;31;20101;-66
2021/08/07 02:39:48;;;;;;;4.70;4.50;;;;;;;15.19;82.17;99995.41;4440798;31;20137;-64
2021/08/07 02:42:14;;;;;;;4.60;4.40;;;;;;;15.31;81.83;100029.59;4440087;32;20086;-66
2021/08/07 02:44:39;;;;;;;5.15;4.95;;;;;;;15.09;82.46;99996.16;4430165;31;20069;-66
2021/08/07 02:47:04;;;;;;;6.18;5.87;;;;;;;15.10;82.30;99999.66;4435373;31;20064;-63
2021/08/07 02:49:30;;;;;;;4.70;4.50;;;;;;;15.18;82.69;100021.03;4441142;31;20072;-67
2021/08/07 02:51:55;;;;;;;6.28;5.97;;;;;;;15.14;83.10;100017.78;4434310;32;20060;-65
2021/08/07 02:54:21;;;;;;;4.72;4.53;;;;;;;15.07;82.67;100010.47;4439801;32;20067;-66
2021/08/07 02:56:46;;;;;;;4.80;4.60;;;;;;;15.07;83.27;100016.59;4443007;31;20067;-66
2021/08/07 02:59:11;;;;;;;4.72;4.53;;;;;;;15.06;83.32;100014.94;4442886;31;20059;-66
2021/08/07 03:01:37;;;;;;;4.80;4.55;;;;;;;15.05;83.24;100013.25;4433111;32;20064;-65
2021/08/07 03:04:02;;;;;;;6.15;5.85;;;;;;;15.03;82.74;100001.12;4435267;31;20147;-66
2021/08/07 03:06:28;;;;;;;4.60;4.40;;;;;;;15.04;82.47;100003.66;4428690;32;20690;-66
2021/08/07 03:08:53;;;;;;;5.97;5.68;;;;;;;14.99;82.99;100003.19;4438716;31;20079;-67
2021/08/07 03:11:18;;;;;;;4.55;4.35;;;;;;;14.95;83.26;100002.63;4436117;32;20098;-66
2021/08/07 03:13:44;;;;;;;4.60;4.40;;;;;;;14.90;83.15;100002.13;4440416;31;20079;-66
2021/08/07 03:16:09;;;;;;;4.70;4.50;;;;;;;14.84;83.33;100007.91;4429030;32;20558;-66
2021/08/07 03:18:34;;;;;;;4.80;4.60;;;;;;;14.76;84.05;100007.69;4440273;32;20189;-66
2021/08/07 03:21:00;;;;;;;6.18;5.87;;;;;;;14.69;83.84;100012.66;4435960;32;20056;-66
2021/08/07 03:23:25;;;;;;;4.65;4.45;;;;;;;14.61;84.17;100004.47;4432988;31;20067;-65
2021/08/07 03:25:50;;;;;;;5.28;5.05;;;;;;;14.56;85.05;100004.03;4434100;32;20807;-66
2021/08/07 03:28:16;;;;;;;4.75;4.55;;;;;;;14.52;84.34;100007.84;4430767;31;20078;-66
2021/08/07 03:30:41;;;;;;;4.70;4.50;;;;;;;14.46;85.40;100010.97;4441387;31;20244;-65
2021/08/07 03:33:06;;;;;;;5.47;5.28;;;;;;;14.43;85.33;100005.91;4429076;31;20889;-66
2021/08/07 03:35:32;;;;;;;4.80;4.60;;;;;;;14.42;85.41;100004.25;4437132;31;20083;-66
2021/08/07 03:37:57;;;;;;;6.28;5.97;;;;;;;14.36;86.02;100009.03;4428705;31;20124;-63
2021/08/07 03:40:23;;;;;;;4.80;4.60;;;;;;;14.33;86.22;100003.16;4442910;31;20071;-65
2021/08/07 03:42:48;;;;;;;4.85;4.65;;;;;;;14.24;86.19;100002.09;4436324;32;20132;-66
2021/08/07 03:45:14;;;;;;;4.80;4.60;;;;;;;13.82;86.43;99941.19;4433127;32;20072;-66
2021/08/07 03:47:43;;;;;;;4.65;4.45;;;;;;;14.15;87.11;100016.00;4435273;31;20187;-66
2021/08/07 03:50:09;;;;;;;4.78;4.57;;;;;;;14.22;86.63;100000.56;4434750;31;20083;-65
2021/08/07 03:52:34;;;;;;;4.65;4.45;;;;;;;13.75;87.24;99948.75;4435647;31;20071;-66
2021/08/07 03:55:00;;;;;;;6.20;5.90;;;;;;;14.08;87.39;99994.53;4429296;31;20502;-66
2021/08/07 03:57:25;;;;;;;4.57;4.37;;;;;;;14.05;87.85;99997.44;4439483;31;20067;-66
2021/08/07 03:59:51;;;;;;;4.55;4.35;;;;;;;14.05;88.31;99996.56;4433190;32;20884;-66
2021/08/07 04:02:16;;;;;;;4.78;4.57;;;;;;;14.08;87.93;99991.91;4433878;32;20083;-63
2021/08/07 04:04:41;;;;;;;4.60;4.40;;;;;;;14.11;87.91;99993.47;4435949;31;20384;-66
2021/08/07 04:07:07;;;;;;;5.35;5.15;;;;;;;14.18;88.00;99986.75;4431310;32;20420;-66
2021/08/07 04:09:32;;;;;;;4.50;4.30;;;;;;;14.25;87.89;99981.81;4435873;31;20557;-65
2021/08/07 04:11:57;;;;;;;4.68;4.47;;;;;;;14.34;87.27;99989.84;4438314;32;20072;-65
2021/08/07 04:14:23;;;;;;;4.70;4.50;;;;;;;14.43;86.69;99982.16;4435882;31;20082;-66
2021/08/07 04:16:48;;;;;;;4.70;4.50;;;;;;;14.51;86.36;99975.31;4442188;31;20067;-65
2021/08/07 04:19:13;;;;;;;4.50;4.30;;;;;;;14.60;85.69;99981.69;4433709;31;20166;-66
2021/08/07 04:21:39;;;;;;;4.68;4.47;;;;;;;14.67;85.17;99966.19;4436616;31;20128;-66
2021/08/07 04:24:04;;;;;;;4.60;4.40;;;;;;;14.70;85.13;99968.59;4438590;32;20087;-65
2021/08/07 04:26:29;;;;;;;4.80;4.60;;;;;;;14.72;84.96;99971.94;4439831;32;20440;-66
2021/08/07 04:28:55;;;;;;;4.60;4.40;;;;;;;14.42;84.93;99907.41;4433216;32;20064;-65
2021/08/07 04:31:20;;;;;;;4.60;4.40;;;;;;;14.85;84.49;99966.47;4438077;31;20078;-65
2021/08/07 04:33:45;;;;;;;4.65;4.45;;;;;;;14.91;84.43;99977.41;4433155;31;20069;-66
2021/08/07 04:36:11;;;;;;;4.50;4.30;;;;;;;14.96;83.62;99975.22;4437099;31;20084;-65
2021/08/07 04:38:36;;;;;;;4.50;4.30;;;;;;;14.98;83.69;99971.63;4436710;32;20521;-66
2021/08/07 04:41:01;;;;;;;6.45;6.15;;;;;;;15.05;82.90;99972.78;4429172;31;20368;-66
2021/08/07 04:43:28;;;;;;;4.62;4.43;;;;;;;15.05;82.81;99978.87;4435351;31;20529;-66
2021/08/07 04:45:54;;;;;;;4.62;4.43;;;;;;;15.05;82.75;99970.97;4436098;31;20055;-66
2021/08/07 04:48:19;;;;;;;4.80;4.60;;;;;;;15.08;83.44;99973.38;4433180;31;20586;-66
2021/08/07 04:50:44;;;;;;;4.55;4.35;;;;;;;15.23;82.81;99970.41;4432992;32;20075;-66
2021/08/07 04:53:10;;;;;;;4.57;4.37;;;;;;;15.31;82.35;99962.66;4423524;32;20469;-66
2021/08/07 04:55:35;;;;;;;4.70;4.50;;;;;;;15.33;82.64;99956.31;4433664;31;20629;-66
2021/08/07 04:58:00;;;;;;;5.97;5.70;;;;;;;15.35;81.60;99967.59;4434169;32;20072;-65
2021/08/07 05:00:26;;;;;;;4.70;4.50;;;;;;;15.37;81.70;99967.44;4436082;32;20079;-65
2021/08/07 05:02:51;;;;;;;4.95;4.75;;;;;;;15.35;82.12;99967.59;4433143;31;20075;-65
2021/08/07 05:05:17;;;;;;;4.80;4.60;;;;;;;15.35;82.54;99972.03;4431929;32;20078;-65
2021/08/07 05:07:43;;;;;;;4.93;4.72;;;;;;;15.37;82.56;99978.03;4439479;31;20084;-65
2021/08/07 05:10:09;;;;;;;5.20;5.00;;;;;;;15.40;82.00;99963.72;4429294;32;20364;-65
2021/08/07 05:12:34;;;;;;;4.65;4.45;;;;;;;15.46;81.71;99966.69;4436029;31;20152;-65
2021/08/07 05:15:00;;;;;;;6.47;6.18;;;;;;;15.50;81.77;99965.44;4431022;32;20240;-62
2021/08/07 05:17:25;;;;;;;4.65;4.45;;;;;;;15.54;81.45;99969.50;4430573;32;20627;-65
2021/08/07 05:19:51;;;;;;;5.18;4.97;;;;;;;15.65;81.06;99967.75;4435777;32;20132;-66
2021/08/07 05:22:16;;;;;;;5.00;4.80;;;;;;;15.75;81.54;99966.88;4436882;31;20405;-64
2021/08/07 05:24:42;;;;;;;4.65;4.45;;;;;;;15.85;80.70;99964.28;4441012;31;20730;-66
2021/08/07 05:27:07;;;;;;;5.62;5.32;;;;;;;15.88;79.92;99956.06;4433451;32;20176;-65
2021/08/07 05:29:33;;;;;;;4.80;4.60;;;;;;;15.90;79.94;99964.72;4440463;31;20467;-66
2021/08/07 05:31:58;;;;;;;6.28;5.97;;;;;;;15.96;79.51;99963.34;4429723;32;20079;-62
2021/08/07 05:34:23;;;;;;;4.78;4.57;;;;;;;16.00;79.77;99956.00;4431067;32;20078;-65
2021/08/07 05:36:49;;;;;;;4.93;4.72;;;;;;;16.00;79.58;99945.41;4439858;31;20072;-66
2021/08/07 05:39:14;;;;;;;4.70;4.50;;;;;;;15.92;79.42;99938.13;4435786;32;20098;-63
2021/08/07 05:41:39;;;;;;;4.60;4.40;;;;;;;16.05;79.71;99961.72;4437255;31;20080;-64
2021/08/07 05:44:05;;;;;;;6.35;6.05;;;;;;;16.09;79.13;99950.72;4425896;32;20067;-64
2021/08/07 05:46:30;;;;;;;4.72;4.53;;;;;;;16.25;78.67;99944.91;4436139;31;20124;-64
2021/08/07 05:48:56;;;;;;;4.70;4.50;;;;;;;16.26;79.12;99954.56;4437407;31;20079;-64
2021/08/07 05:51:22;;;;;;;6.28;5.97;;;;;;;16.30;78.36;99957.78;4448056;32;20322;-64
2021/08/07 05:53:48;;;;;;;4.68;4.47;;;;;;;16.42;78.37;99950.56;4432595;31;20313;-63
2021/08/07 05:56:13;;;;;;;4.87;4.68;;;;;;;16.57;78.59;99962.41;4436872;32;20095;-63
2021/08/07 05:58:39;;;;;;;5.07;4.87;;;;;;;16.63;77.68;99967.16;4436298;31;20079;-64
2021/08/07 06:01:05;;;;;;;6.45;6.15;;;;;;;16.71;77.73;99955.87;4433455;32;20876;-64
2021/08/07 06:03:30;;;;;;;4.82;4.62;;;;;;;16.86;77.05;99953.72;4434951;31;20079;-63
2021/08/07 06:05:55;;;;;;;6.30;6.00;;;;;;;16.93;76.90;99958.28;4435076;32;20694;-63
2021/08/07 06:08:21;;;;;;;4.65;4.45;;;;;;;17.03;76.04;99952.16;4431491;31;20095;-64
2021/08/07 06:10:46;;;;;;;4.90;4.70;;;;;;;17.02;75.69;99958.44;4430474;32;20555;-64
2021/08/07 06:13:11;;;;;;;4.78;4.57;;;;;;;17.02;75.19;99956.63;4432033;31;20063;-63
2021/08/07 06:15:37;;;;;;;4.78;4.57;;;;;;;16.98;76.59;99957.03;4432881;32;20082;-63
2021/08/07 06:18:03;;;;;;;6.12;5.82;;;;;;;17.01;75.61;99962.06;4440795;31;20075;-63
2021/08/07 06:20:28;;;;;;;4.70;4.50;;;;;;;16.65;76.12;99914.88;4430491;32;20654;-63
2021/08/07 06:22:53;;;;;;;7.25;6.85;;;;;;;16.98;76.62;99954.38;4429971;31;20068;-63
2021/08/07 06:25:19;;;;;;;4.72;4.53;;;;;;;16.95;75.83;99961.66;4424462;32;20087;-63
2021/08/07 06:27:45;;;;;;;4.70;4.50;;;;;;;16.88;76.18;99963.19;4437693;31;20078;-64
2021/08/07 06:30:10;;;;;;;4.82;4.62;;;;;;;16.90;76.45;99952.47;4439118;32;20084;-63
2021/08/07 06:32:36;;;;;;;4.80;4.60;;;;;;;16.66;77.13;99940.41;4436771;31;20107;-63
2021/08/07 06:35:01;;;;;;;6.35;6.05;;;;;;;16.78;76.87;99956.16;4430908;31;20064;-63
2021/08/07 06:37:26;;;;;;;4.85;4.65;;;;;;;16.90;76.83;99955.94;4438108;31;20090;-63
2021/08/07 06:39:52;;;;;;;5.60;5.35;;;;;;;17.00;76.40;99953.28;4435636;31;20498;-63
2021/08/07 06:42:17;;;;;;;4.60;4.40;;;;;;;17.04;76.07;99957.34;4431087;32;20083;-63
2021/08/07 06:44:42;;;;;;;5.53;5.00;;;;;;;17.16;76.29;99955.37;4437670;31;20237;-63
2021/08/07 06:47:08;;;;;;;5.53;5.32;;;;;;;17.35;75.67;99957.16;4432033;32;20515;-63
2021/08/07 06:49:33;;;;;;;4.55;4.35;;;;;;;17.48;75.40;99951.53;4429562;31;20083;-64
2021/08/07 06:51:58;;;;;;;6.47;6.18;;;;;;;17.70;75.04;99953.88;4435889;32;20364;-63
2021/08/07 06:54:24;;;;;;;4.70;4.50;;;;;;;17.88;74.34;99955.78;4439663;31;21906;-63
2021/08/07 06:56:49;;;;;;;4.62;4.43;;;;;;;18.02;73.00;99943.84;4437402;31;20082;-63
2021/08/07 06:59:15;;;;;;;5.12;4.93;;;;;;;18.14;72.57;99950.63;4423234;31;20999;-65
2021/08/07 07:01:40;;;;;;;5.00;4.80;;;;;;;18.21;72.55;99953.56;4436575;32;20079;-65
2021/08/07 07:04:06;;;;;;;6.68;6.37;;;;;;;18.22;72.76;99942.81;4437408;31;20079;-65
2021/08/07 07:06:31;;;;;;;5.15;4.95;;;;;;;18.22;72.28;99942.81;4436234;32;20059;-65
2021/08/07 07:08:56;;;;;;;6.43;6.12;;;;;;;18.01;72.62;99928.94;4431877;32;20107;-63
2021/08/07 07:11:22;;;;;;;5.10;4.90;;;;;;;18.21;72.20;99941.13;4442300;31;20985;-67
2021/08/07 07:13:48;;;;;;;5.15;4.95;;;;;;;18.32;71.93;99932.94;4450878;31;20588;-64
2021/08/07 07:16:13;;;;;;;4.97;4.78;;;;;;;18.34;72.01;99938.94;4438552;31;20647;-64
2021/08/07 07:18:39;;;;;;;5.68;5.37;;;;;;;18.39;72.02;99949.13;4438365;31;20068;-63
2021/08/07 07:21:04;;;;;;;6.43;6.12;;;;;;;18.50;70.98;99937.44;4434234;31;20087;-64
2021/08/07 07:23:29;;;;;;;5.00;4.80;;;;;;;18.46;70.83;99942.25;4440881;31;20087;-63
2021/08/07 07:25:55;;;;;;;6.40;6.10;;;;;;;18.58;70.89;99942.84;4433823;32;20083;-63
2021/08/07 07:28:21;;;;;;;5.10;4.90;;;;;;;18.98;70.02;99940.75;4434583;31;21688;-65
2021/08/07 07:30:46;;;;;;;4.90;4.70;;;;;;;19.01;68.79;99935.97;4433127;32;20072;-67
2021/08/07 07:33:14;;;;;;;5.30;5.10;;;;;;;19.11;68.42;99943.88;4431161;32;20071;-67
2021/08/07 07:35:39;;;;;;;5.00;4.80;;;;;;;19.12;69.16;99937.53;4438187;31;20695;-68
2021/08/07 07:38:05;;;;;;;6.57;6.28;;;;;;;19.35;68.94;99940.56;4431580;31;20243;-67
2021/08/07 07:40:30;;;;;;;5.10;4.90;;;;;;;19.55;67.81;99938.53;4433493;31;20963;-67
2021/08/07 07:42:55;;;;;;;6.45;6.15;;;;;;;19.63;67.00;99933.25;4436992;32;20565;-67
2021/08/07 07:45:21;;;;;;;5.05;4.85;;;;;;;18.72;66.61;99771.38;4429235;32;21890;-68
2021/08/07 07:47:46;;;;;;;5.00;4.80;;;;;;;19.83;66.01;99927.75;4439220;32;20075;-66
2021/08/07 07:50:12;;;;;;;5.93;5.62;;;;;;;20.05;65.19;99937.81;4416916;32;20555;-66
2021/08/07 07:52:37;;;;;;;5.07;4.87;;;;;;;20.04;65.21;99925.50;4437144;32;20090;-68
2021/08/07 07:55:03;;;;;;;6.95;6.65;;;;;;;20.29;64.29;99942.41;4423780;32;20573;-66
2021/08/07 07:57:28;;;;;;;5.35;5.15;;;;;;;20.39;63.54;99944.12;4428078;32;20087;-65
2021/08/07 07:59:54;;;;;;;5.62;5.22;;;;;;;19.58;63.41;99767.88;4418752;32;20064;-66
2021/08/07 08:02:19;;;;;;;5.18;4.97;;;;;;;20.69;62.62;99935.53;4438325;32;20061;-67
2021/08/07 08:04:44;;;;;;;5.45;5.15;;;;;;;20.77;62.03;99912.53;4389509;32;20082;-67
2021/08/07 08:07:10;;;;;;;5.43;5.22;;;;;;;20.85;61.16;99924.06;4418763;32;20554;-67
2021/08/07 08:09:35;;;;;;;5.10;4.90;;;;;;;21.17;60.66;99937.56;4422851;32;20083;-66
2021/08/07 08:12:01;;;;;;;6.50;6.20;;;;;;;21.18;60.53;99928.56;4419172;32;20130;-66
2021/08/07 08:14:27;;;;;;;5.25;5.05;;;;;;;21.21;60.66;99931.72;4427556;32;20087;-66
2021/08/07 08:16:52;;;;;;;6.40;6.10;;;;;;;21.33;60.28;99924.22;4419144;32;20498;-66
2021/08/07 08:19:17;;;;;;;5.10;4.90;;;;;;;21.43;58.67;99921.38;4429374;32;20332;-66
2021/08/07 08:21:43;;;;;;;5.62;5.32;;;;;;;21.49;59.28;99907.38;4423630;32;20566;-67
2021/08/07 08:24:08;;;;;;;6.07;5.57;;;;;;;21.62;58.85;99915.66;4419310;32;20087;-66
2021/08/07 08:26:33;;;;;;;7.05;6.75;;;;;;;21.50;58.44;99912.53;4429666;32;20597;-66
2021/08/07 08:28:59;;;;;;;5.50;5.20;;;;;;;21.71;58.01;99909.31;4430711;32;20145;-66
2021/08/07 08:31:24;;;;;;;5.25;5.05;;;;;;;22.09;57.71;99905.97;4418797;32;20064;-66
2021/08/07 08:33:49;;;;;;;5.43;5.22;;;;;;;20.95;57.01;99721.19;4423949;32;20072;-66
2021/08/07 08:36:15;;;;;;;5.62;5.35;;;;;;;22.17;55.95;99895.25;4423962;32;20080;-66
2021/08/07 08:38:40;;;;;;;5.50;5.30;;;;;;;22.30;56.46;99889.38;4429319;32;20068;-66
2021/08/07 08:41:05;;;;;;;5.40;5.20;;;;;;;22.44;56.13;99888.59;4438512;32;20092;-66
2021/08/07 08:43:32;;;;;;;5.50;5.20;;;;;;;22.74;54.19;99885.22;4434456;32;20086;-66
2021/08/07 08:45:57;;;;;;;5.15;4.95;;;;;;;22.61;53.54;99886.66;4434125;32;20474;-64
2021/08/07 08:48:23;;;;;;;5.90;5.60;;;;;;;23.07;54.65;99893.84;4435679;32;20438;-70
2021/08/07 08:50:49;;;;;;;5.47;5.20;;;;;;;23.11;52.87;99895.13;4421625;32;20133;-68
2021/08/07 08:53:14;;;;;;;5.82;5.53;;;;;;;23.07;52.97;99842.97;4427087;32;20167;-68
2021/08/07 08:55:40;;;;;;;5.40;5.20;;;;;;;23.02;53.32;99891.72;4422757;32;20685;-70
2021/08/07 08:58:05;;;;;;;5.15;4.95;;;;;;;23.20;54.23;99879.84;4430987;32;20076;-68
2021/08/07 09:00:31;;;;;;;6.10;5.45;;;;;;;22.63;53.82;99875.75;4425535;31;20129;-69
2021/08/07 09:02:56;;;;;;;5.40;5.20;;;;;;;22.82;54.40;99874.47;4426489;31;20617;-69
2021/08/07 09:05:21;;;;;;;5.70;5.20;;;;;;;22.49;54.62;99875.56;4419041;32;20088;-68
2021/08/07 09:07:48;;;;;;;5.43;5.20;;;;;;;21.38;54.92;99705.66;4425135;31;20559;-69
2021/08/07 09:10:13;;;;;;;5.10;4.90;;;;;;;22.55;55.26;99882.03;4419482;32;20088;-67
2021/08/07 09:12:39;;;;;;;5.03;4.82;;;;;;;22.58;54.76;99867.47;4424398;31;20682;-67
2021/08/07 09:15:05;;;;;;;6.00;5.70;;;;;;;22.44;55.54;99869.06;4437279;32;20156;-67
2021/08/07 09:17:31;;;;;;;5.20;5.00;;;;;;;22.66;55.46;99862.06;4425117;32;20788;-67
2021/08/07 09:19:58;;;;;;;6.22;5.93;;;;;;;22.56;54.34;99862.28;4421086;32;20087;-67
2021/08/07 09:22:28;;;;;;;5.78;5.00;;;;;;;22.54;53.22;99872.34;4423895;32;20079;-67
2021/08/07 09:24:59;;;;;;;5.00;4.80;;;;;;;22.51;51.99;99872.69;4426016;32;20627;-67
2021/08/07 09:27:44;;;;;;;5.43;5.10;;;;;;;22.71;51.64;99873.03;4448990;32;20485;-67
2021/08/07 09:30:17;;;;;;;5.40;5.12;;;;;;;22.89;52.00;99867.38;4429934;32;20060;-67
2021/08/07 09:32:50;;;;;;;5.07;4.87;;;;;;;23.20;51.64;99864.59;4451935;32;20676;-67
2021/08/07 09:35:29;;;;;;;5.37;5.18;;;;;;;23.20;51.09;99864.59;4429302;32;20090;-67
2021/08/07 09:38:11;;;;;;;6.82;6.53;;;;;;;23.66;52.10;99858.25;4424292;32;20151;-67
2021/08/07 09:40:38;;;;;;;5.10;4.90;;;;;;;23.98;48.65;99858.91;4433262;32;20439;-67
2021/08/07 09:43:03;;;;;;;7.10;6.80;;;;;;;24.33;49.11;99856.37;4418668;32;20068;-68
2021/08/07 09:45:29;;;;;;;5.50;5.30;;;;;;;24.39;49.29;99858.31;4429010;32;20086;-68
2021/08/07 09:48:05;;;;;;;6.72;6.43;;;;;;;24.25;49.00;99855.47;4432325;32;20087;-64
2021/08/07 09:50:31;;;;;;;5.50;5.30;;;;;;;24.43;48.32;99863.09;4449093;32;20075;-67
2021/08/07 09:52:57;;;;;;;6.70;6.40;;;;;;;24.36;46.61;99859.53;4437352;32;20060;-67
2021/08/07 09:55:22;;;;;;;6.28;5.97;;;;;;;24.76;46.41;99867.97;4430266;32;20390;-68
2021/08/07 09:58:02;;;;;;;6.07;5.78;;;;;;;24.88;45.40;99861.06;4427198;32;20072;-68
2021/08/07 10:00:42;;;;;;;5.53;5.22;;;;;;;25.03;45.07;99860.12;4436844;32;20090;-68
2021/08/07 10:03:18;;;;;;;6.20;5.90;;;;;;;25.25;43.69;99858.25;4427930;32;20067;-65
2021/08/07 10:05:43;;;;;;;5.28;5.07;;;;;;;25.45;44.54;99859.22;4426396;32;20566;-67
2021/08/07 10:08:11;;;;;;;5.60;5.30;;;;;;;25.13;43.48;99851.75;4430582;32;20082;-67
2021/08/07 10:10:36;;;;;;;5.90;5.60;;;;;;;25.23;43.24;99847.72;4440998;32;20604;-67
2021/08/07 10:13:01;;;;;;;6.87;6.57;;;;;;;25.44;43.17;99844.12;4434398;32;20072;-67
2021/08/07 10:15:27;;;;;;;5.10;4.90;;;;;;;23.92;43.91;99655.97;4420812;32;20072;-67
2021/08/07 10:17:53;;;;;;;6.75;6.45;;;;;;;25.13;43.71;99839.16;4432578;32;20581;-67
2021/08/07 10:20:18;;;;;;;5.37;5.18;;;;;;;24.94;44.41;99843.34;4438673;32;20068;-67
2021/08/07 10:22:44;;;;;;;5.40;5.20;;;;;;;24.88;44.81;99833.41;4422364;32;20082;-67
2021/08/07 10:25:09;;;;;;;6.15;5.85;;;;;;;24.38;43.06;99825.28;4450350;32;20199;-67
2021/08/07 10:27:35;;;;;;;5.30;5.10;;;;;;;24.37;44.67;99817.44;4438861;32;20061;-67
2021/08/07 10:30:01;;;;;;;5.65;5.35;;;;;;;24.26;45.80;99811.56;4430691;32;20136;-67
2021/08/07 10:32:26;;;;;;;5.22;5.03;;;;;;;24.13;45.40;99773.88;4423711;32;20670;-66
2021/08/07 10:34:52;;;;;;;6.45;6.15;;;;;;;24.60;45.39;99803.87;4435895;32;20273;-66
2021/08/07 10:37:17;;;;;;;5.28;5.07;;;;;;;24.57;44.33;99812.28;4419345;32;20135;-66
2021/08/07 10:39:43;;;;;;;5.40;5.20;;;;;;;24.31;43.31;99810.97;4436446;32;20333;-66
2021/08/07 10:42:08;;;;;;;5.62;5.43;;;;;;;24.43;44.82;99812.13;4435220;32;20140;-67
2021/08/07 10:44:34;;;;;;;5.30;5.10;;;;;;;24.41;44.20;99794.56;4423134;32;20079;-66
2021/08/07 10:46:59;;;;;;;6.78;6.47;;;;;;;24.35;43.89;99806.06;4431467;32;20106;-68
2021/08/07 10:49:39;;;;;;;5.43;5.22;;;;;;;24.11;44.00;99808.09;4423189;32;20663;-66
2021/08/07 10:52:22;;;;;;;6.87;6.57;;;;;;;23.90;44.69;99808.91;4421622;32;20090;-66
2021/08/07 10:54:48;;;;;;;5.32;5.12;;;;;;;23.59;44.69;99801.06;4429170;32;20494;-72
2021/08/07 10:57:36;;;;;;;5.20;5.00;;;;;;;23.25;46.54;99810.50;4428544;32;20937;-70
2021/08/07 11:00:18;;;;;;;7.03;6.72;;;;;;;23.04;47.01;99806.72;4427097;32;20128;-69
2021/08/07 11:02:44;;;;;;;5.40;5.20;;;;;;;22.88;46.98;99810.34;4442700;32;20073;-70
2021/08/07 11:05:09;;;;;;;5.30;5.10;;;;;;;22.67;46.72;99818.22;4433835;32;20107;-69
2021/08/07 11:07:35;;;;;;;6.15;5.75;;;;;;;22.41;46.84;99798.06;4427987;32;20177;-69
2021/08/07 11:10:22;;;;;;;5.45;5.25;;;;;;;22.67;48.26;99807.53;4425208;32;20570;-69
2021/08/07 11:12:47;;;;;;;5.30;5.10;;;;;;;22.69;47.40;99803.69;4448075;32;20699;-67
2021/08/07 11:15:29;;;;;;;5.30;5.10;;;;;;;22.73;48.14;99803.31;4430018;32;20080;-67
2021/08/07 11:17:55;;;;;;;5.12;4.93;;;;;;;22.85;48.24;99807.22;4442260;32;20107;-67
2021/08/07 11:20:52;;;;;;;5.30;5.10;;;;;;;22.99;47.98;99806.44;4442799;32;20060;-68
2021/08/07 11:23:19;;;;;;;5.30;5.10;;;;;;;23.06;47.97;99807.38;4429026;32;20123;-68
2021/08/07 11:25:52;;;;;;;5.30;5.10;;;;;;;22.92;46.88;99810.00;4443389;32;20091;-68
2021/08/07 11:28:21;;;;;;;5.30;5.10;;;;;;;23.08;46.48;99807.19;4438531;32;20083;-69
2021/08/07 11:30:46;;;;;;;5.50;5.30;;;;;;;23.12;45.32;99804.97;4444905;32;20599;-69